sensor_id;sensor_type;location;lat;lon;timestamp;temperature;humidity
24452;DHT22;13350;50.984;5.822;2023-09-19T00:00:30;15.20;99.90
24452;DHT22;13350;50.984;5.822;2023-09-19T00:02:59;15.30;99.90
24452;DHT22;13350;50.984;5.822;2023-09-19T00:05:27;15.20;99.90
24452;DHT22;13350;50.984;5.822;2023-09-19T00:07:55;15.20;99.90
24452;DHT22;13350;50.984;5.822;2023-09-19T00:10:23;15.20;99.90
24452;DHT22;13350;50.984;5.822;2023-09-19T00:12:52;15.20;99.90
24452;DHT22;13350;50.984;5.822;2023-09-19T00:15:20;15.20;99.90
24452;DHT22;13350;50.984;5.822;2023-09-19T00:17:47;15.30;99.90
24452;DHT22;13350;50.984;5.822;2023-09-19T00:20:14;15.20;99.90
24452;DHT22;13350;50.984;5.822;2023-09-19T00:22:44;15.20;99.90
24452;DHT22;13350;50.984;5.822;2023-09-19T00:25:11;15.20;99.90
24452;DHT22;13350;50.984;5.822;2023-09-19T00:27:40;15.10;99.90
24452;DHT22;13350;50.984;5.822;2023-09-19T00:30:09;15.10;99.90
24452;DHT22;13350;50.984;5.822;2023-09-19T00:32:39;15.10;99.90
24452;DHT22;13350;50.984;5.822;2023-09-19T00:35:06;15.10;99.90
24452;DHT22;13350;50.984;5.822;2023-09-19T00:37:34;15.10;99.90
24452;DHT22;13350;50.984;5.822;2023-09-19T00:40:03;15.10;99.90
24452;DHT22;13350;50.984;5.822;2023-09-19T00:42:31;15.00;99.90
24452;DHT22;13350;50.984;5.822;2023-09-19T00:44:59;15.00;99.90
24452;DHT22;13350;50.984;5.822;2023-09-19T00:47:28;15.00;99.90
24452;DHT22;13350;50.984;5.822;2023-09-19T00:49:56;15.00;99.90
24452;DHT22;13350;50.984;5.822;2023-09-19T00:52:23;15.00;99.90
24452;DHT22;13350;50.984;5.822;2023-09-19T00:54:51;15.00;99.90
24452;DHT22;13350;50.984;5.822;2023-09-19T00:57:19;15.00;99.90
24452;DHT22;13350;50.984;5.822;2023-09-19T00:59:48;15.00;99.90
24452;DHT22;13350;50.984;5.822;2023-09-19T01:02:16;15.00;99.90
24452;DHT22;13350;50.984;5.822;2023-09-19T01:04:44;15.00;99.90
24452;DHT22;13350;50.984;5.822;2023-09-19T01:07:11;15.00;99.90
24452;DHT22;13350;50.984;5.822;2023-09-19T01:09:40;15.10;99.90
24452;DHT22;13350;50.984;5.822;2023-09-19T01:12:08;15.10;99.90
24452;DHT22;13350;50.984;5.822;2023-09-19T01:14:40;15.10;99.90
24452;DHT22;13350;50.984;5.822;2023-09-19T01:17:09;15.10;99.90
24452;DHT22;13350;50.984;5.822;2023-09-19T01:22:42;15.10;99.90
24452;DHT22;13350;50.984;5.822;2023-09-19T01:25:34;15.10;99.90
24452;DHT22;13350;50.984;5.822;2023-09-19T01:28:20;15.20;99.90
24452;DHT22;13350;50.984;5.822;2023-09-19T01:30:51;15.10;99.90
24452;DHT22;13350;50.984;5.822;2023-09-19T01:33:19;15.10;99.90
24452;DHT22;13350;50.984;5.822;2023-09-19T01:35:46;15.10;99.90
24452;DHT22;13350;50.984;5.822;2023-09-19T01:38:14;15.10;99.90
24452;DHT22;13350;50.984;5.822;2023-09-19T01:40:42;15.10;99.90
24452;DHT22;13350;50.984;5.822;2023-09-19T01:43:10;15.00;99.90
24452;DHT22;13350;50.984;5.822;2023-09-19T01:45:38;14.90;99.90
24452;DHT22;13350;50.984;5.822;2023-09-19T01:50:59;14.90;99.90
24452;DHT22;13350;50.984;5.822;2023-09-19T01:53:28;14.90;99.90
24452;DHT22;13350;50.984;5.822;2023-09-19T01:55:56;14.90;99.90
24452;DHT22;13350;50.984;5.822;2023-09-19T01:58:26;14.80;99.90
24452;DHT22;13350;50.984;5.822;2023-09-19T02:00:54;14.80;99.90
24452;DHT22;13350;50.984;5.822;2023-09-19T02:03:21;14.90;99.90
24452;DHT22;13350;50.984;5.822;2023-09-19T02:05:49;14.80;99.90
24452;DHT22;13350;50.984;5.822;2023-09-19T02:08:18;14.80;99.90
24452;DHT22;13350;50.984;5.822;2023-09-19T02:10:46;14.80;99.90
24452;DHT22;13350;50.984;5.822;2023-09-19T02:13:15;14.70;99.90
24452;DHT22;13350;50.984;5.822;2023-09-19T02:15:42;14.60;99.90
24452;DHT22;13350;50.984;5.822;2023-09-19T02:18:10;14.60;99.90
24452;DHT22;13350;50.984;5.822;2023-09-19T02:20:37;14.60;99.90
24452;DHT22;13350;50.984;5.822;2023-09-19T02:23:04;14.60;99.90
24452;DHT22;13350;50.984;5.822;2023-09-19T02:25:33;14.60;99.90
24452;DHT22;13350;50.984;5.822;2023-09-19T02:28:00;14.60;99.90
24452;DHT22;13350;50.984;5.822;2023-09-19T02:30:28;14.60;99.90
24452;DHT22;13350;50.984;5.822;2023-09-19T02:32:55;14.70;99.90
24452;DHT22;13350;50.984;5.822;2023-09-19T02:35:22;14.70;99.90
24452;DHT22;13350;50.984;5.822;2023-09-19T02:37:51;14.60;99.90
24452;DHT22;13350;50.984;5.822;2023-09-19T02:40:19;14.60;99.90
24452;DHT22;13350;50.984;5.822;2023-09-19T02:42:48;14.60;99.90
24452;DHT22;13350;50.984;5.822;2023-09-19T02:45:16;14.60;99.90
24452;DHT22;13350;50.984;5.822;2023-09-19T02:47:44;14.60;99.90
24452;DHT22;13350;50.984;5.822;2023-09-19T02:50:11;14.60;99.90
24452;DHT22;13350;50.984;5.822;2023-09-19T02:52:38;14.60;99.90
24452;DHT22;13350;50.984;5.822;2023-09-19T02:55:09;14.50;99.90
24452;DHT22;13350;50.984;5.822;2023-09-19T02:57:35;14.50;99.90
24452;DHT22;13350;50.984;5.822;2023-09-19T03:00:08;14.60;99.90
24452;DHT22;13350;50.984;5.822;2023-09-19T03:02:36;14.60;99.90
24452;DHT22;13350;50.984;5.822;2023-09-19T03:05:04;14.60;99.90
24452;DHT22;13350;50.984;5.822;2023-09-19T03:07:31;14.60;99.90
24452;DHT22;13350;50.984;5.822;2023-09-19T03:09:58;14.70;99.90
24452;DHT22;13350;50.984;5.822;2023-09-19T03:12:25;14.70;99.90
24452;DHT22;13350;50.984;5.822;2023-09-19T03:14:52;14.70;99.90
24452;DHT22;13350;50.984;5.822;2023-09-19T03:17:21;14.70;99.90
24452;DHT22;13350;50.984;5.822;2023-09-19T03:19:48;14.60;99.90
24452;DHT22;13350;50.984;5.822;2023-09-19T03:22:15;14.70;99.90
24452;DHT22;13350;50.984;5.822;2023-09-19T03:24:42;14.70;99.90
24452;DHT22;13350;50.984;5.822;2023-09-19T03:27:10;14.70;99.90
24452;DHT22;13350;50.984;5.822;2023-09-19T03:29:39;14.60;99.90
24452;DHT22;13350;50.984;5.822;2023-09-19T03:32:06;14.60;99.90
24452;DHT22;13350;50.984;5.822;2023-09-19T03:34:37;14.50;99.90
24452;DHT22;13350;50.984;5.822;2023-09-19T03:37:08;14.50;99.90
24452;DHT22;13350;50.984;5.822;2023-09-19T03:39:35;14.50;99.90
24452;DHT22;13350;50.984;5.822;2023-09-19T03:42:02;14.50;99.90
24452;DHT22;13350;50.984;5.822;2023-09-19T03:44:32;14.50;99.90
24452;DHT22;13350;50.984;5.822;2023-09-19T03:46:59;14.50;99.90
24452;DHT22;13350;50.984;5.822;2023-09-19T03:49:26;14.50;99.90
24452;DHT22;13350;50.984;5.822;2023-09-19T03:51:54;14.40;99.90
24452;DHT22;13350;50.984;5.822;2023-09-19T03:54:21;14.40;99.90
24452;DHT22;13350;50.984;5.822;2023-09-19T03:56:48;14.50;99.90
24452;DHT22;13350;50.984;5.822;2023-09-19T03:59:15;14.50;99.90
24452;DHT22;13350;50.984;5.822;2023-09-19T04:01:44;14.50;99.90
24452;DHT22;13350;50.984;5.822;2023-09-19T04:04:11;14.50;99.90
24452;DHT22;13350;50.984;5.822;2023-09-19T04:06:39;14.50;99.90
24452;DHT22;13350;50.984;5.822;2023-09-19T04:09:08;14.50;99.90
24452;DHT22;13350;50.984;5.822;2023-09-19T04:11:35;14.50;99.90
24452;DHT22;13350;50.984;5.822;2023-09-19T04:14:02;14.50;99.90
24452;DHT22;13350;50.984;5.822;2023-09-19T04:16:30;14.50;99.90
24452;DHT22;13350;50.984;5.822;2023-09-19T04:18:56;14.50;99.90
24452;DHT22;13350;50.984;5.822;2023-09-19T04:21:23;14.50;99.90
24452;DHT22;13350;50.984;5.822;2023-09-19T04:23:51;14.50;99.90
24452;DHT22;13350;50.984;5.822;2023-09-19T04:26:19;14.50;99.90
24452;DHT22;13350;50.984;5.822;2023-09-19T04:28:47;14.50;99.90
24452;DHT22;13350;50.984;5.822;2023-09-19T04:31:14;14.50;99.90
24452;DHT22;13350;50.984;5.822;2023-09-19T04:33:42;14.50;99.90
24452;DHT22;13350;50.984;5.822;2023-09-19T04:36:09;14.60;99.90
24452;DHT22;13350;50.984;5.822;2023-09-19T04:38:36;14.70;99.90
24452;DHT22;13350;50.984;5.822;2023-09-19T04:41:03;14.70;99.90
24452;DHT22;13350;50.984;5.822;2023-09-19T04:43:31;14.60;99.90
24452;DHT22;13350;50.984;5.822;2023-09-19T04:45:58;14.60;99.90
24452;DHT22;13350;50.984;5.822;2023-09-19T04:48:25;14.60;99.90
24452;DHT22;13350;50.984;5.822;2023-09-19T04:50:54;14.50;99.90
24452;DHT22;13350;50.984;5.822;2023-09-19T04:53:21;14.50;99.90
24452;DHT22;13350;50.984;5.822;2023-09-19T04:55:51;14.60;99.90
24452;DHT22;13350;50.984;5.822;2023-09-19T04:58:21;14.60;99.90
24452;DHT22;13350;50.984;5.822;2023-09-19T05:00:49;14.50;99.90
24452;DHT22;13350;50.984;5.822;2023-09-19T05:03:17;14.50;99.90
24452;DHT22;13350;50.984;5.822;2023-09-19T05:05:46;14.50;99.90
24452;DHT22;13350;50.984;5.822;2023-09-19T05:08:13;14.50;99.90
24452;DHT22;13350;50.984;5.822;2023-09-19T05:10:40;14.50;99.90
24452;DHT22;13350;50.984;5.822;2023-09-19T05:13:07;14.50;99.90
24452;DHT22;13350;50.984;5.822;2023-09-19T05:15:34;14.50;99.90
24452;DHT22;13350;50.984;5.822;2023-09-19T05:18:03;14.50;99.90
24452;DHT22;13350;50.984;5.822;2023-09-19T05:20:31;14.50;99.90
24452;DHT22;13350;50.984;5.822;2023-09-19T05:23:01;14.50;99.90
24452;DHT22;13350;50.984;5.822;2023-09-19T05:25:28;14.40;99.90
24452;DHT22;13350;50.984;5.822;2023-09-19T05:27:56;14.40;99.90
24452;DHT22;13350;50.984;5.822;2023-09-19T05:30:24;14.30;99.90
24452;DHT22;13350;50.984;5.822;2023-09-19T05:32:52;14.40;99.90
24452;DHT22;13350;50.984;5.822;2023-09-19T05:35:21;14.30;99.90
24452;DHT22;13350;50.984;5.822;2023-09-19T05:37:48;14.40;99.90
24452;DHT22;13350;50.984;5.822;2023-09-19T05:40:16;14.40;99.90
24452;DHT22;13350;50.984;5.822;2023-09-19T05:42:43;14.50;99.90
24452;DHT22;13350;50.984;5.822;2023-09-19T05:45:10;14.50;99.90
24452;DHT22;13350;50.984;5.822;2023-09-19T05:47:38;14.50;99.90
24452;DHT22;13350;50.984;5.822;2023-09-19T05:50:09;14.50;99.90
24452;DHT22;13350;50.984;5.822;2023-09-19T05:52:38;14.40;99.90
24452;DHT22;13350;50.984;5.822;2023-09-19T05:55:06;14.40;99.90
24452;DHT22;13350;50.984;5.822;2023-09-19T05:57:33;14.40;99.90
24452;DHT22;13350;50.984;5.822;2023-09-19T06:00:01;14.40;99.90
24452;DHT22;13350;50.984;5.822;2023-09-19T06:02:29;14.40;99.90
24452;DHT22;13350;50.984;5.822;2023-09-19T06:04:56;14.40;99.90
24452;DHT22;13350;50.984;5.822;2023-09-19T06:07:23;14.30;99.90
24452;DHT22;13350;50.984;5.822;2023-09-19T06:09:53;14.40;99.90
24452;DHT22;13350;50.984;5.822;2023-09-19T06:12:20;14.40;99.90
24452;DHT22;13350;50.984;5.822;2023-09-19T06:14:47;14.50;99.90
24452;DHT22;13350;50.984;5.822;2023-09-19T06:17:14;14.50;99.90
24452;DHT22;13350;50.984;5.822;2023-09-19T06:19:42;14.50;99.90
24452;DHT22;13350;50.984;5.822;2023-09-19T06:22:14;14.60;99.90
24452;DHT22;13350;50.984;5.822;2023-09-19T06:24:41;14.70;99.90
24452;DHT22;13350;50.984;5.822;2023-09-19T06:27:10;14.70;99.90
24452;DHT22;13350;50.984;5.822;2023-09-19T06:29:37;14.80;99.90
24452;DHT22;13350;50.984;5.822;2023-09-19T06:32:06;14.80;99.90
24452;DHT22;13350;50.984;5.822;2023-09-19T06:34:33;14.80;99.90
24452;DHT22;13350;50.984;5.822;2023-09-19T06:37:00;14.80;99.90
24452;DHT22;13350;50.984;5.822;2023-09-19T06:39:28;14.80;99.90
24452;DHT22;13350;50.984;5.822;2023-09-19T06:41:56;14.90;99.90
24452;DHT22;13350;50.984;5.822;2023-09-19T06:44:25;14.90;99.90
24452;DHT22;13350;50.984;5.822;2023-09-19T06:46:52;15.00;99.90
24452;DHT22;13350;50.984;5.822;2023-09-19T06:49:20;15.00;99.90
24452;DHT22;13350;50.984;5.822;2023-09-19T06:51:47;15.00;99.90
24452;DHT22;13350;50.984;5.822;2023-09-19T06:54:15;15.00;99.90
24452;DHT22;13350;50.984;5.822;2023-09-19T06:56:43;15.00;99.90
24452;DHT22;13350;50.984;5.822;2023-09-19T06:59:10;15.10;99.90
24452;DHT22;13350;50.984;5.822;2023-09-19T07:01:41;15.10;99.90
24452;DHT22;13350;50.984;5.822;2023-09-19T07:04:10;15.10;99.90
24452;DHT22;13350;50.984;5.822;2023-09-19T07:06:38;15.20;99.90
24452;DHT22;13350;50.984;5.822;2023-09-19T07:09:05;15.20;99.90
24452;DHT22;13350;50.984;5.822;2023-09-19T07:11:33;15.30;99.90
24452;DHT22;13350;50.984;5.822;2023-09-19T07:14:00;15.30;99.90
24452;DHT22;13350;50.984;5.822;2023-09-19T07:16:31;15.30;99.90
24452;DHT22;13350;50.984;5.822;2023-09-19T07:18:59;15.40;99.90
24452;DHT22;13350;50.984;5.822;2023-09-19T07:21:27;15.40;99.90
24452;DHT22;13350;50.984;5.822;2023-09-19T07:23:54;15.40;99.90
24452;DHT22;13350;50.984;5.822;2023-09-19T07:26:21;15.50;99.90
24452;DHT22;13350;50.984;5.822;2023-09-19T07:28:48;15.60;99.90
24452;DHT22;13350;50.984;5.822;2023-09-19T07:31:15;15.60;99.90
24452;DHT22;13350;50.984;5.822;2023-09-19T07:33:42;15.70;99.90
24452;DHT22;13350;50.984;5.822;2023-09-19T07:36:11;15.80;99.90
24452;DHT22;13350;50.984;5.822;2023-09-19T07:38:39;15.80;99.90
24452;DHT22;13350;50.984;5.822;2023-09-19T07:41:06;15.90;99.90
24452;DHT22;13350;50.984;5.822;2023-09-19T07:43:34;15.90;99.90
24452;DHT22;13350;50.984;5.822;2023-09-19T07:46:05;15.90;99.90
24452;DHT22;13350;50.984;5.822;2023-09-19T07:48:34;16.00;99.90
24452;DHT22;13350;50.984;5.822;2023-09-19T07:51:02;16.00;99.90
24452;DHT22;13350;50.984;5.822;2023-09-19T07:53:30;16.00;99.90
24452;DHT22;13350;50.984;5.822;2023-09-19T07:56:02;16.10;99.90
24452;DHT22;13350;50.984;5.822;2023-09-19T07:58:29;16.20;99.90
24452;DHT22;13350;50.984;5.822;2023-09-19T08:00:56;16.20;99.90
24452;DHT22;13350;50.984;5.822;2023-09-19T08:03:28;16.20;99.90
24452;DHT22;13350;50.984;5.822;2023-09-19T08:05:55;16.20;99.90
24452;DHT22;13350;50.984;5.822;2023-09-19T08:08:23;16.20;99.90
24452;DHT22;13350;50.984;5.822;2023-09-19T08:10:54;16.40;99.90
24452;DHT22;13350;50.984;5.822;2023-09-19T08:13:22;16.30;99.90
24452;DHT22;13350;50.984;5.822;2023-09-19T08:15:49;16.50;99.90
24452;DHT22;13350;50.984;5.822;2023-09-19T08:18:16;16.60;99.90
24452;DHT22;13350;50.984;5.822;2023-09-19T08:20:43;16.70;99.90
24452;DHT22;13350;50.984;5.822;2023-09-19T08:23:16;16.80;99.90
24452;DHT22;13350;50.984;5.822;2023-09-19T08:25:43;16.80;99.90
24452;DHT22;13350;50.984;5.822;2023-09-19T08:28:12;16.80;99.90
24452;DHT22;13350;50.984;5.822;2023-09-19T08:30:43;16.80;99.90
24452;DHT22;13350;50.984;5.822;2023-09-19T08:33:11;16.80;99.90
24452;DHT22;13350;50.984;5.822;2023-09-19T08:35:40;16.90;99.90
24452;DHT22;13350;50.984;5.822;2023-09-19T08:38:08;17.00;99.90
24452;DHT22;13350;50.984;5.822;2023-09-19T08:40:37;17.10;99.90
24452;DHT22;13350;50.984;5.822;2023-09-19T08:43:05;17.20;99.90
24452;DHT22;13350;50.984;5.822;2023-09-19T08:45:34;17.20;99.90
24452;DHT22;13350;50.984;5.822;2023-09-19T08:48:04;17.40;99.90
24452;DHT22;13350;50.984;5.822;2023-09-19T08:50:33;17.20;99.90
24452;DHT22;13350;50.984;5.822;2023-09-19T08:53:06;17.30;99.90
24452;DHT22;13350;50.984;5.822;2023-09-19T08:55:36;17.20;99.90
24452;DHT22;13350;50.984;5.822;2023-09-19T08:58:04;17.40;99.90
24452;DHT22;13350;50.984;5.822;2023-09-19T09:00:35;17.50;99.90
24452;DHT22;13350;50.984;5.822;2023-09-19T09:03:02;17.80;99.90
24452;DHT22;13350;50.984;5.822;2023-09-19T09:05:30;17.80;99.90
24452;DHT22;13350;50.984;5.822;2023-09-19T09:07:58;18.00;99.90
24452;DHT22;13350;50.984;5.822;2023-09-19T09:10:25;18.10;99.90
24452;DHT22;13350;50.984;5.822;2023-09-19T09:12:53;18.10;99.90
24452;DHT22;13350;50.984;5.822;2023-09-19T09:15:21;18.20;99.90
24452;DHT22;13350;50.984;5.822;2023-09-19T09:17:50;18.50;99.90
24452;DHT22;13350;50.984;5.822;2023-09-19T09:20:18;18.80;99.90
24452;DHT22;13350;50.984;5.822;2023-09-19T09:22:51;18.90;99.90
24452;DHT22;13350;50.984;5.822;2023-09-19T09:25:19;18.40;99.90
24452;DHT22;13350;50.984;5.822;2023-09-19T09:27:58;18.30;99.90
24452;DHT22;13350;50.984;5.822;2023-09-19T09:30:32;18.40;99.90
24452;DHT22;13350;50.984;5.822;2023-09-19T09:33:08;18.70;99.90
24452;DHT22;13350;50.984;5.822;2023-09-19T09:35:36;19.00;99.90
24452;DHT22;13350;50.984;5.822;2023-09-19T09:38:04;19.00;99.90
24452;DHT22;13350;50.984;5.822;2023-09-19T09:40:47;18.90;99.90
24452;DHT22;13350;50.984;5.822;2023-09-19T09:43:26;19.10;99.90
24452;DHT22;13350;50.984;5.822;2023-09-19T09:46:06;19.30;99.90
24452;DHT22;13350;50.984;5.822;2023-09-19T09:49:02;19.30;99.90
24452;DHT22;13350;50.984;5.822;2023-09-19T09:51:44;19.20;99.90
24452;DHT22;13350;50.984;5.822;2023-09-19T09:54:23;19.50;99.90
24452;DHT22;13350;50.984;5.822;2023-09-19T09:56:53;19.10;99.90
24452;DHT22;13350;50.984;5.822;2023-09-19T10:02:11;19.20;99.90
24452;DHT22;13350;50.984;5.822;2023-09-19T10:04:40;19.00;99.90
24452;DHT22;13350;50.984;5.822;2023-09-19T10:07:24;19.20;99.90
24452;DHT22;13350;50.984;5.822;2023-09-19T10:09:53;19.30;99.90
24452;DHT22;13350;50.984;5.822;2023-09-19T10:12:24;19.40;99.90
24452;DHT22;13350;50.984;5.822;2023-09-19T10:14:54;19.50;99.90
24452;DHT22;13350;50.984;5.822;2023-09-19T10:17:23;19.30;99.90
24452;DHT22;13350;50.984;5.822;2023-09-19T10:19:54;19.20;99.90
24452;DHT22;13350;50.984;5.822;2023-09-19T10:22:23;19.00;99.90
24452;DHT22;13350;50.984;5.822;2023-09-19T10:24:50;18.90;99.90
24452;DHT22;13350;50.984;5.822;2023-09-19T10:27:20;18.90;99.90
24452;DHT22;13350;50.984;5.822;2023-09-19T10:29:49;18.80;99.90
24452;DHT22;13350;50.984;5.822;2023-09-19T10:32:16;19.20;99.90
24452;DHT22;13350;50.984;5.822;2023-09-19T10:34:45;19.10;99.90
24452;DHT22;13350;50.984;5.822;2023-09-19T10:37:14;19.00;99.90
24452;DHT22;13350;50.984;5.822;2023-09-19T10:39:44;19.10;99.90
24452;DHT22;13350;50.984;5.822;2023-09-19T10:42:13;19.40;99.90
24452;DHT22;13350;50.984;5.822;2023-09-19T10:44:42;19.40;99.90
24452;DHT22;13350;50.984;5.822;2023-09-19T10:47:11;19.30;99.90
24452;DHT22;13350;50.984;5.822;2023-09-19T10:49:43;19.20;99.90
24452;DHT22;13350;50.984;5.822;2023-09-19T10:52:11;19.50;99.90
24452;DHT22;13350;50.984;5.822;2023-09-19T10:54:46;19.70;99.90
24452;DHT22;13350;50.984;5.822;2023-09-19T10:57:18;19.70;99.90
24452;DHT22;13350;50.984;5.822;2023-09-19T11:00:00;19.60;99.90
24452;DHT22;13350;50.984;5.822;2023-09-19T11:05:32;20.10;99.90
24452;DHT22;13350;50.984;5.822;2023-09-19T11:07:59;20.60;99.90
24452;DHT22;13350;50.984;5.822;2023-09-19T11:10:46;20.30;99.90
24452;DHT22;13350;50.984;5.822;2023-09-19T11:13:26;20.90;99.90
24452;DHT22;13350;50.984;5.822;2023-09-19T11:21:42;21.80;99.90
24452;DHT22;13350;50.984;5.822;2023-09-19T11:27:15;22.00;99.90
24452;DHT22;13350;50.984;5.822;2023-09-19T11:29:43;21.60;99.90
24452;DHT22;13350;50.984;5.822;2023-09-19T11:32:11;21.90;99.90
24452;DHT22;13350;50.984;5.822;2023-09-19T11:34:38;21.40;99.90
24452;DHT22;13350;50.984;5.822;2023-09-19T11:37:18;21.50;99.90
24452;DHT22;13350;50.984;5.822;2023-09-19T11:40:05;22.00;99.90
24452;DHT22;13350;50.984;5.822;2023-09-19T11:42:42;21.60;99.90
24452;DHT22;13350;50.984;5.822;2023-09-19T11:47:56;21.30;99.90
24452;DHT22;13350;50.984;5.822;2023-09-19T11:50:23;21.30;99.90
24452;DHT22;13350;50.984;5.822;2023-09-19T11:52:50;21.20;99.90
24452;DHT22;13350;50.984;5.822;2023-09-19T11:55:20;21.00;99.90
24452;DHT22;13350;50.984;5.822;2023-09-19T11:57:51;20.70;99.90
24452;DHT22;13350;50.984;5.822;2023-09-19T12:00:21;20.80;99.90
24452;DHT22;13350;50.984;5.822;2023-09-19T12:02:49;20.80;99.90
24452;DHT22;13350;50.984;5.822;2023-09-19T12:05:27;20.60;99.90
24452;DHT22;13350;50.984;5.822;2023-09-19T12:07:54;20.90;99.90
24452;DHT22;13350;50.984;5.822;2023-09-19T12:10:21;21.00;99.90
24452;DHT22;13350;50.984;5.822;2023-09-19T12:12:50;21.50;99.90
24452;DHT22;13350;50.984;5.822;2023-09-19T12:15:22;21.80;99.90
24452;DHT22;13350;50.984;5.822;2023-09-19T12:17:50;22.60;99.90
24452;DHT22;13350;50.984;5.822;2023-09-19T12:20:19;22.50;99.90
24452;DHT22;13350;50.984;5.822;2023-09-19T12:22:46;22.60;99.90
24452;DHT22;13350;50.984;5.822;2023-09-19T12:25:15;21.90;99.90
24452;DHT22;13350;50.984;5.822;2023-09-19T12:27:44;21.50;99.90
24452;DHT22;13350;50.984;5.822;2023-09-19T12:30:14;21.40;99.90
24452;DHT22;13350;50.984;5.822;2023-09-19T12:32:43;21.50;99.90
24452;DHT22;13350;50.984;5.822;2023-09-19T12:35:10;21.30;99.90
24452;DHT22;13350;50.984;5.822;2023-09-19T12:37:54;21.00;99.90
24452;DHT22;13350;50.984;5.822;2023-09-19T12:40:22;21.30;99.90
24452;DHT22;13350;50.984;5.822;2023-09-19T12:42:53;21.40;99.90
24452;DHT22;13350;50.984;5.822;2023-09-19T12:45:22;21.30;99.90
24452;DHT22;13350;50.984;5.822;2023-09-19T12:50:34;20.70;99.90
24452;DHT22;13350;50.984;5.822;2023-09-19T12:53:03;20.40;99.90
24452;DHT22;13350;50.984;5.822;2023-09-19T12:55:30;20.50;99.90
24452;DHT22;13350;50.984;5.822;2023-09-19T12:57:58;20.60;99.90
24452;DHT22;13350;50.984;5.822;2023-09-19T13:00:35;20.30;99.90
24452;DHT22;13350;50.984;5.822;2023-09-19T13:03:14;20.30;99.90
24452;DHT22;13350;50.984;5.822;2023-09-19T13:05:50;20.20;99.90
24452;DHT22;13350;50.984;5.822;2023-09-19T13:08:17;20.20;99.90
24452;DHT22;13350;50.984;5.822;2023-09-19T13:11:04;20.30;99.90
24452;DHT22;13350;50.984;5.822;2023-09-19T13:13:35;20.30;99.90
24452;DHT22;13350;50.984;5.822;2023-09-19T13:16:04;20.60;99.90
24452;DHT22;13350;50.984;5.822;2023-09-19T13:18:41;20.80;99.90
24452;DHT22;13350;50.984;5.822;2023-09-19T13:21:08;20.20;99.90
24452;DHT22;13350;50.984;5.822;2023-09-19T13:23:41;19.90;99.90
24452;DHT22;13350;50.984;5.822;2023-09-19T13:26:09;19.70;99.90
24452;DHT22;13350;50.984;5.822;2023-09-19T13:28:37;19.80;99.90
24452;DHT22;13350;50.984;5.822;2023-09-19T13:31:05;19.80;99.90
24452;DHT22;13350;50.984;5.822;2023-09-19T13:33:33;19.80;99.90
24452;DHT22;13350;50.984;5.822;2023-09-19T13:36:01;20.00;99.90
24452;DHT22;13350;50.984;5.822;2023-09-19T13:38:28;20.10;99.90
24452;DHT22;13350;50.984;5.822;2023-09-19T13:40:55;20.40;99.90
24452;DHT22;13350;50.984;5.822;2023-09-19T13:43:21;20.60;99.90
24452;DHT22;13350;50.984;5.822;2023-09-19T13:45:50;20.50;99.90
24452;DHT22;13350;50.984;5.822;2023-09-19T13:48:18;20.20;99.90
24452;DHT22;13350;50.984;5.822;2023-09-19T13:50:48;20.10;99.90
24452;DHT22;13350;50.984;5.822;2023-09-19T13:53:14;20.20;99.90
24452;DHT22;13350;50.984;5.822;2023-09-19T13:55:42;20.40;99.90
24452;DHT22;13350;50.984;5.822;2023-09-19T13:58:09;20.20;99.90
24452;DHT22;13350;50.984;5.822;2023-09-19T14:00:37;20.10;99.90
24452;DHT22;13350;50.984;5.822;2023-09-19T14:03:04;19.80;99.90
24452;DHT22;13350;50.984;5.822;2023-09-19T14:05:32;19.90;99.90
24452;DHT22;13350;50.984;5.822;2023-09-19T14:07:59;20.20;99.90
24452;DHT22;13350;50.984;5.822;2023-09-19T14:10:28;20.30;99.90
24452;DHT22;13350;50.984;5.822;2023-09-19T14:12:56;20.10;99.90
24452;DHT22;13350;50.984;5.822;2023-09-19T14:15:25;20.10;99.90
24452;DHT22;13350;50.984;5.822;2023-09-19T14:17:55;20.30;99.90
24452;DHT22;13350;50.984;5.822;2023-09-19T14:20:22;20.30;99.90
24452;DHT22;13350;50.984;5.822;2023-09-19T14:22:51;20.30;99.90
24452;DHT22;13350;50.984;5.822;2023-09-19T14:25:18;20.60;99.90
24452;DHT22;13350;50.984;5.822;2023-09-19T14:27:46;20.50;99.90
24452;DHT22;13350;50.984;5.822;2023-09-19T14:30:13;20.60;99.90
24452;DHT22;13350;50.984;5.822;2023-09-19T14:32:40;20.40;99.90
24452;DHT22;13350;50.984;5.822;2023-09-19T14:35:07;20.00;99.90
24452;DHT22;13350;50.984;5.822;2023-09-19T14:37:34;19.90;99.90
24452;DHT22;13350;50.984;5.822;2023-09-19T14:40:05;19.90;99.90
24452;DHT22;13350;50.984;5.822;2023-09-19T14:42:34;19.90;99.90
24452;DHT22;13350;50.984;5.822;2023-09-19T14:45:04;19.70;99.90
24452;DHT22;13350;50.984;5.822;2023-09-19T14:47:31;19.60;99.90
24452;DHT22;13350;50.984;5.822;2023-09-19T14:49:59;19.60;99.90
24452;DHT22;13350;50.984;5.822;2023-09-19T14:52:26;19.80;99.90
24452;DHT22;13350;50.984;5.822;2023-09-19T14:54:53;19.90;99.90
24452;DHT22;13350;50.984;5.822;2023-09-19T14:57:22;19.90;99.90
24452;DHT22;13350;50.984;5.822;2023-09-19T14:59:50;19.70;99.90
24452;DHT22;13350;50.984;5.822;2023-09-19T15:02:17;19.50;99.90
24452;DHT22;13350;50.984;5.822;2023-09-19T15:04:44;19.50;99.90
24452;DHT22;13350;50.984;5.822;2023-09-19T15:07:13;19.50;99.90
24452;DHT22;13350;50.984;5.822;2023-09-19T15:09:41;19.50;99.90
24452;DHT22;13350;50.984;5.822;2023-09-19T15:12:09;19.50;99.90
24452;DHT22;13350;50.984;5.822;2023-09-19T15:14:38;19.50;99.90
24452;DHT22;13350;50.984;5.822;2023-09-19T15:17:05;19.60;99.90
24452;DHT22;13350;50.984;5.822;2023-09-19T15:19:32;19.60;99.90
24452;DHT22;13350;50.984;5.822;2023-09-19T15:21:59;20.00;99.90
24452;DHT22;13350;50.984;5.822;2023-09-19T15:24:26;20.70;99.90
24452;DHT22;13350;50.984;5.822;2023-09-19T15:26:53;20.80;99.90
24452;DHT22;13350;50.984;5.822;2023-09-19T15:29:21;20.30;99.90
24452;DHT22;13350;50.984;5.822;2023-09-19T15:31:49;20.10;99.90
24452;DHT22;13350;50.984;5.822;2023-09-19T15:34:16;20.10;99.90
24452;DHT22;13350;50.984;5.822;2023-09-19T15:36:43;20.10;99.90
24452;DHT22;13350;50.984;5.822;2023-09-19T15:39:11;20.00;99.90
24452;DHT22;13350;50.984;5.822;2023-09-19T15:41:40;19.70;99.90
24452;DHT22;13350;50.984;5.822;2023-09-19T15:44:11;19.70;99.90
24452;DHT22;13350;50.984;5.822;2023-09-19T15:46:38;19.60;99.90
24452;DHT22;13350;50.984;5.822;2023-09-19T15:49:06;19.60;99.90
24452;DHT22;13350;50.984;5.822;2023-09-19T15:51:34;19.70;99.90
24452;DHT22;13350;50.984;5.822;2023-09-19T15:54:02;19.70;99.90
24452;DHT22;13350;50.984;5.822;2023-09-19T15:56:33;19.80;99.90
24452;DHT22;13350;50.984;5.822;2023-09-19T15:59:01;19.80;99.90
24452;DHT22;13350;50.984;5.822;2023-09-19T16:01:28;19.90;99.90
24452;DHT22;13350;50.984;5.822;2023-09-19T16:03:55;19.90;99.90
24452;DHT22;13350;50.984;5.822;2023-09-19T16:06:24;19.90;99.90